Date,TemperatureHighF,TemperatureAvgF,TemperatureLowF,DewpointHighF,DewpointAvgF,DewpointLowF,HumidityHigh,HumidityAvg,HumidityLow,PressureMaxIn,PressureMinIn,WindSpeedMaxMPH,WindSpeedAvgMPH,GustSpeedMaxMPH,PrecipitationSumIn
2013-7-1,111.2,88.6,67.1,66.2,56.2,3.2,73,38,2,29.83,29.74,8,1,8,0.00
2013-7-2,109.4,88.0,73.8,66.2,58.4,50.0,62,38,24,29.89,29.77,14,3,14,0.00
2013-7-3,110.7,86.3,66.9,66.2,59.6,53.6,74,44,24,29.89,29.71,12,2,12,0.00
2013-7-4,112.5,90.0,72.7,68.0,60.3,48.2,69,40,18,29.77,29.59,13,2,13,0.00
2013-7-5,91.2,77.2,64.2,57.2,51.4,42.8,65,41,30,29.77,29.62,11,3,12,0.00
2013-7-6,94.1,74.1,58.1,59.0,54.2,48.2,86,54,28,29.80,29.68,10,3,10,0.00
2013-7-7,99.7,76.7,57.9,59.0,45.5,-11.2,86,47,2,29.83,29.74,8,3,8,0.00
2013-7-8,101.5,77.6,57.0,59.0,40.5,-11.2,93,43,2,29.95,29.83,9,2,9,0.00
2013-7-9,106.5,84.1,0.0,60.8,40.0,-7.6,78,36,2,30.03,29.89,8,2,8,0.00
2013-7-10,101.1,74.3,63.0,60.8,48.8,-7.6,71,47,2,29.98,29.83,13,2,13,0.00
2013-7-11,96.1,73.2,55.4,57.2,52.1,42.8,88,52,18,29.92,29.83,10,2,10,0.00
2013-7-12,95.4,73.6,56.7,59.0,53.7,46.4,90,54,27,29.95,29.83,10,2,10,0.00
2013-7-13,101.8,78.8,58.8,57.2,41.5,-7.6,81,39,2,29.95,29.86,10,2,10,0.00
2013-7-14,99.5,70.9,60.1,59.0,50.7,42.8,73,52,17,30.01,29.83,10,2,10,0.00
2013-7-15,88.5,69.9,55.9,57.2,52.4,48.2,90,57,29,29.92,29.77,12,3,12,0.00
2013-7-16,82.8,73.1,56.5,55.4,54.0,50.0,91,53,38,30.03,29.83,14,4,14,0.00
2013-7-17,98.4,74.3,54.9,59.0,54.4,48.2,93,56,19,30.09,29.95,10,2,10,0.00
2013-7-18,102.6,78.6,56.5,60.8,50.0,-5.8,89,47,2,30.03,29.89,10,2,10,0.00
2013-7-19,103.5,79.5,59.2,60.8,53.5,46.4,83,45,17,29.95,29.74,11,2,11,0.00
2013-7-20,103.3,79.4,60.4,62.6,55.3,48.2,83,47,22,29.86,29.65,10,2,10,0.00
2013-7-21,97.5,78.3,61.9,57.2,53.1,44.6,72,45,21,29.86,29.71,13,4,13,0.00
2013-7-22,95.2,77.0,63.9,57.2,51.9,12.2,77,45,9,29.98,29.83,13,3,13,0.00
2013-7-23,96.8,78.9,67.8,57.2,50.7,44.6,53,38,21,30.01,29.89,13,2,13,0.00
2013-7-24,102.6,82.1,63.1,60.8,54.0,46.4,80,41,18,30.01,29.86,10,2,10,0.00
2013-7-25,99.7,80.6,66.0,62.6,54.5,48.2,61,42,28,29.98,29.89,11,2,11,0.00
2013-7-26,99.1,79.2,61.0,62.6,54.6,50.0,83,45,28,30.07,29.92,10,2,10,0.00
2013-7-27,96.6,74.9,58.5,60.8,55.8,51.8,91,54,29,29.98,29.80,10,2,10,0.00
2013-7-28,92.5,73.0,58.1,62.6,55.0,48.2,92,57,30,29.89,29.74,11,3,11,0.00
2013-7-29,86.2,68.5,56.7,57.2,53.5,50.0,90,61,34,29.98,29.80,12,3,12,0.00
2013-7-30,94.1,71.6,55.6,59.0,54.4,44.6,92,59,20,30.12,29.95,11,3,11,0.00
2013-7-31,91.2,71.8,56.7,57.2,52.5,46.4,92,54,29,30.09,29.95,12,2,12,0.00